Time;durP1;ratioP1;P1;durP2;ratioP2;P2;SDS_P1;SDS_P2;PMS_P1;PMS_P2;Temp;Humidity;BMP_temperature;BMP_pressure;BME280_temperature;BME280_humidity;BME280_pressure;Samples;Min_cycle;Max_cycle;Signal;HPM_P1;HPM_P2
2024/04/06 00:01:51;;;;;;;110.53;105.05;;;;;;;;;;5032318;28;20064;-59
2024/04/06 00:04:17;;;;;;;106.07;100.80;;;;;;;;;;5032823;28;20351;-49
2024/04/06 00:06:42;;;;;;;115.20;109.50;;;;;;;;;;5033686;28;20047;-49
2024/04/06 00:09:07;;;;;;;114.45;108.80;;;;;;;;;;5034439;28;20082;-48
2024/04/06 00:11:33;;;;;;;112.25;106.68;;;;;;;;;;5036826;28;20107;-59
2024/04/06 00:13:58;;;;;;;105.97;100.70;;;;;;;;;;5032970;28;20048;-51
2024/04/06 00:16:23;;;;;;;98.82;93.85;;;;;;;;;;5030678;28;20029;-52
2024/04/06 00:18:49;;;;;;;102.53;97.45;;;;;;;;;;5032213;28;20041;-52
2024/04/06 00:21:14;;;;;;;95.57;90.85;;;;;;;;;;5033025;28;20064;-51
2024/04/06 00:23:39;;;;;;;106.47;101.18;;;;;;;;;;5032332;28;20075;-53
2024/04/06 00:26:04;;;;;;;106.95;101.68;;;;;;;;;;5034281;28;20124;-48
2024/04/06 00:28:34;;;;;;;98.93;94.00;;;;;;;;;;5032398;28;20245;-54
2024/04/06 00:30:59;;;;;;;113.80;107.18;;;;;;;;;;5030314;28;20039;-52
2024/04/06 00:33:25;;;;;;;112.78;107.15;;;;;;;;;;5009390;28;20116;-54
2024/04/06 00:35:50;;;;;;;108.75;103.35;;;;;;;;;;5034701;28;20040;-51
2024/04/06 00:38:16;;;;;;;112.82;107.10;;;;;;;;;;5033234;28;20041;-52
2024/04/06 00:40:41;;;;;;;118.93;113.03;;;;;;;;;;5032905;28;20042;-50
2024/04/06 00:43:07;;;;;;;112.15;106.50;;;;;;;;;;5031103;28;20104;-50
2024/04/06 00:45:33;;;;;;;108.72;103.32;;;;;;;;;;5030238;28;20510;-52
2024/04/06 00:47:59;;;;;;;99.90;94.85;;;;;;;;;;5035319;28;20044;-52
2024/04/06 00:50:25;;;;;;;96.30;91.50;;;;;;;;;;5034377;28;20108;-51
2024/04/06 00:52:50;;;;;;;94.05;89.38;;;;;;;;;;5032722;28;20487;-52
2024/04/06 00:55:16;;;;;;;82.95;78.78;;;;;;;;;;5031079;28;20052;-52
2024/04/06 00:57:42;;;;;;;90.20;85.70;;;;;;;;;;5033316;28;20041;-51
2024/04/06 01:00:08;;;;;;;78.05;74.13;;;;;;;;;;5035592;28;20082;-48
2024/04/06 01:02:34;;;;;;;76.95;73.10;;;;;;;;;;5036042;28;20037;-60
2024/04/06 01:04:59;;;;;;;81.72;77.63;;;;;;;;;;5034203;28;20029;-59
2024/04/06 01:07:25;;;;;;;80.07;76.07;;;;;;;;;;5040032;28;20040;-59
2024/04/06 01:09:51;;;;;;;80.93;76.88;;;;;;;;;;5033134;28;20099;-60
2024/04/06 01:12:16;;;;;;;84.13;79.93;;;;;;;;;;5037748;28;20064;-52
2024/04/06 01:14:41;;;;;;;74.95;71.18;;;;;;;;;;5036062;28;20028;-60
2024/04/06 01:17:08;;;;;;;74.40;70.55;;;;;;;;;;5033097;28;20029;-49
2024/04/06 01:19:34;;;;;;;71.45;67.88;;;;;;;;;;5032695;28;20037;-59
2024/04/06 01:21:59;;;;;;;69.97;66.45;;;;;;;;;;5030636;28;20045;-59
2024/04/06 01:24:28;;;;;;;67.85;64.32;;;;;;;;;;5030197;28;20037;-59
2024/04/06 01:26:55;;;;;;;62.35;59.05;;;;;;;;;;5033556;28;20041;-60
2024/04/06 01:29:24;;;;;;;70.55;67.00;;;;;;;;;;5033521;28;20354;-59
2024/04/06 01:31:49;;;;;;;75.72;71.72;;;;;;;;;;5030473;28;20131;-59
2024/04/06 01:34:14;;;;;;;67.50;63.85;;;;;;;;;;5033991;28;20507;-59
2024/04/06 01:36:42;;;;;;;58.60;55.65;;;;;;;;;;5033390;28;20124;-60
2024/04/06 01:39:08;;;;;;;60.97;57.92;;;;;;;;;;5032255;28;20083;-60
2024/04/06 01:41:38;;;;;;;60.63;57.53;;;;;;;;;;5023307;28;20036;-59
2024/04/06 01:44:06;;;;;;;49.45;46.92;;;;;;;;;;5032791;28;20122;-59
2024/04/06 01:46:33;;;;;;;51.53;48.92;;;;;;;;;;5032523;28;20102;-59
2024/04/06 01:48:59;;;;;;;53.25;49.47;;;;;;;;;;5032558;28;20064;-59
2024/04/06 01:51:25;;;;;;;57.38;54.47;;;;;;;;;;5031549;28;20056;-60
2024/04/06 01:53:50;;;;;;;65.13;61.85;;;;;;;;;;5030791;28;20467;-59
2024/04/06 01:56:16;;;;;;;65.30;62.05;;;;;;;;;;5049281;28;20108;-60
2024/04/06 01:58:41;;;;;;;71.80;68.20;;;;;;;;;;5033721;28;20033;-60
2024/04/06 02:01:07;;;;;;;65.38;61.90;;;;;;;;;;5032417;28;20029;-59
2024/04/06 02:03:35;;;;;;;68.25;64.82;;;;;;;;;;5033704;28;20044;-59
2024/04/06 02:06:01;;;;;;;79.82;75.85;;;;;;;;;;5034501;28;20126;-59
2024/04/06 02:08:27;;;;;;;74.93;71.18;;;;;;;;;;5034641;28;20507;-59
2024/04/06 02:10:52;;;;;;;82.53;78.43;;;;;;;;;;5034252;28;20075;-59
2024/04/06 02:13:17;;;;;;;86.93;82.55;;;;;;;;;;5033507;28;20029;-59
2024/04/06 02:15:44;;;;;;;87.10;82.78;;;;;;;;;;5033734;28;20203;-59
2024/04/06 02:18:13;;;;;;;81.88;77.68;;;;;;;;;;5036941;28;20044;-59
2024/04/06 02:20:40;;;;;;;74.78;71.05;;;;;;;;;;5035265;28;20067;-59
2024/04/06 02:23:05;;;;;;;75.70;71.93;;;;;;;;;;5038079;28;20095;-60
2024/04/06 02:25:31;;;;;;;63.88;60.65;;;;;;;;;;5035997;28;20033;-59
2024/04/06 02:27:57;;;;;;;63.75;60.53;;;;;;;;;;5039206;28;20037;-59
2024/04/06 02:30:22;;;;;;;60.05;57.03;;;;;;;;;;5035897;28;20046;-59
2024/04/06 02:32:48;;;;;;;67.78;64.35;;;;;;;;;;5034334;28;20033;-59
2024/04/06 02:35:14;;;;;;;75.20;71.45;;;;;;;;;;5036096;28;20052;-59
2024/04/06 02:37:40;;;;;;;72.40;68.78;;;;;;;;;;5033218;28;20038;-59
2024/04/06 02:40:06;;;;;;;76.13;72.32;;;;;;;;;;5034631;28;20038;-59
2024/04/06 02:42:31;;;;;;;73.70;70.00;;;;;;;;;;5034713;28;20752;-59
2024/04/06 02:44:57;;;;;;;75.40;71.63;;;;;;;;;;5036704;28;20042;-59
2024/04/06 02:47:22;;;;;;;75.90;72.13;;;;;;;;;;5036623;28;20038;-59
2024/04/06 02:49:47;;;;;;;70.53;67.00;;;;;;;;;;5037989;28;20033;-60
2024/04/06 02:52:13;;;;;;;78.90;74.90;;;;;;;;;;5039354;28;20032;-59
2024/04/06 02:54:39;;;;;;;74.13;70.43;;;;;;;;;;5036628;28;20112;-59
2024/04/06 02:57:05;;;;;;;75.78;71.97;;;;;;;;;;5040609;28;20025;-59
2024/04/06 02:59:31;;;;;;;79.65;75.70;;;;;;;;;;5037233;28;20379;-59
2024/04/06 03:01:57;;;;;;;71.75;68.18;;;;;;;;;;5034591;28;20029;-60
2024/04/06 03:04:23;;;;;;;73.18;69.55;;;;;;;;;;5036858;28;20041;-60
2024/04/06 03:06:49;;;;;;;75.20;71.40;;;;;;;;;;5038252;28;20430;-60
2024/04/06 03:09:15;;;;;;;70.65;67.10;;;;;;;;;;5035466;28;20029;-60
2024/04/06 03:11:42;;;;;;;76.50;72.70;;;;;;;;;;5034360;28;20768;-59
2024/04/06 03:14:08;;;;;;;65.97;62.65;;;;;;;;;;5034355;28;20108;-59
2024/04/06 03:16:33;;;;;;;81.15;77.13;;;;;;;;;;5039451;28;20174;-59
2024/04/06 03:18:58;;;;;;;74.72;71.00;;;;;;;;;;5032426;28;20029;-59
2024/04/06 03:21:24;;;;;;;76.68;72.72;;;;;;;;;;5034025;28;20029;-59
2024/04/06 03:23:49;;;;;;;78.13;74.22;;;;;;;;;;5033695;28;20045;-59
2024/04/06 03:26:15;;;;;;;86.82;82.45;;;;;;;;;;5032726;28;20052;-59
2024/04/06 03:28:40;;;;;;;85.10;80.90;;;;;;;;;;5032604;28;20037;-59
2024/04/06 03:31:05;;;;;;;86.63;82.28;;;;;;;;;;5035153;28;20037;-59
2024/04/06 03:33:31;;;;;;;85.35;81.13;;;;;;;;;;5033739;28;20044;-59
2024/04/06 03:35:56;;;;;;;85.50;81.25;;;;;;;;;;5035022;28;20021;-59
2024/04/06 03:38:21;;;;;;;78.30;74.38;;;;;;;;;;5034142;28;20197;-59
2024/04/06 03:40:47;;;;;;;73.68;70.00;;;;;;;;;;5035218;28;20029;-59
2024/04/06 03:43:12;;;;;;;68.50;65.10;;;;;;;;;;5034677;28;20033;-59
2024/04/06 03:45:37;;;;;;;60.08;57.03;;;;;;;;;;5033307;28;20156;-59
2024/04/06 03:48:03;;;;;;;56.40;53.47;;;;;;;;;;5034964;28;20033;-59
2024/04/06 03:50:28;;;;;;;53.45;50.75;;;;;;;;;;5034566;28;20033;-59
2024/04/06 03:52:54;;;;;;;52.83;50.17;;;;;;;;;;5034024;28;20056;-59
2024/04/06 03:55:20;;;;;;;67.47;64.10;;;;;;;;;;5033661;28;20026;-59
2024/04/06 03:57:45;;;;;;;64.35;61.13;;;;;;;;;;5034078;28;20060;-59
2024/04/06 04:00:13;;;;;;;54.83;52.03;;;;;;;;;;5033272;28;20041;-59
2024/04/06 04:02:39;;;;;;;60.72;57.25;;;;;;;;;;5033732;28;20083;-59
2024/04/06 04:05:04;;;;;;;53.78;51.08;;;;;;;;;;5035569;28;20025;-59
2024/04/06 04:07:33;;;;;;;53.72;51.03;;;;;;;;;;5032284;28;20379;-59
2024/04/06 04:10:01;;;;;;;48.38;45.88;;;;;;;;;;5032972;28;20108;-59
2024/04/06 04:12:28;;;;;;;50.17;47.45;;;;;;;;;;5033186;28;20038;-59
2024/04/06 04:14:53;;;;;;;45.47;43.17;;;;;;;;;;5029543;28;20456;-59
2024/04/06 04:17:18;;;;;;;45.65;43.35;;;;;;;;;;5031847;28;20052;-59
2024/04/06 04:19:44;;;;;;;42.10;40.00;;;;;;;;;;5035114;28;20065;-59
2024/04/06 04:22:09;;;;;;;40.88;38.63;;;;;;;;;;5033313;28;20037;-59
2024/04/06 04:24:34;;;;;;;39.90;37.80;;;;;;;;;;5032243;28;20067;-59
2024/04/06 04:27:00;;;;;;;37.53;35.53;;;;;;;;;;5037573;28;20043;-59
2024/04/06 04:29:25;;;;;;;38.80;36.80;;;;;;;;;;5030735;28;20037;-49
2024/04/06 04:31:51;;;;;;;38.20;36.20;;;;;;;;;;5032975;28;20030;-59
2024/04/06 04:34:16;;;;;;;38.63;36.65;;;;;;;;;;5034827;28;20450;-59
2024/04/06 04:36:41;;;;;;;40.95;38.85;;;;;;;;;;5034663;28;20102;-59
2024/04/06 04:39:07;;;;;;;43.28;41.08;;;;;;;;;;5029747;28;20450;-58
2024/04/06 04:41:32;;;;;;;43.55;41.25;;;;;;;;;;5032215;28;20239;-59
2024/04/06 04:43:57;;;;;;;46.60;44.20;;;;;;;;;;5031208;28;20041;-59
2024/04/06 04:46:23;;;;;;;45.72;43.33;;;;;;;;;;5031521;28;20044;-59
2024/04/06 04:49:02;;;;;;;44.55;42.20;;;;;;;;;;5030547;28;20513;-51
2024/04/06 04:51:27;;;;;;;44.63;42.33;;;;;;;;;;5032586;28;20064;-50
2024/04/06 04:53:54;;;;;;;45.30;42.90;;;;;;;;;;5033677;28;21115;-59
2024/04/06 04:56:19;;;;;;;48.10;45.50;;;;;;;;;;5032526;28;20406;-59
2024/04/06 04:58:48;;;;;;;47.55;45.10;;;;;;;;;;5033490;28;20067;-60
2024/04/06 05:01:16;;;;;;;47.72;45.33;;;;;;;;;;5034206;28;20421;-59
2024/04/06 05:03:42;;;;;;;52.00;49.33;;;;;;;;;;5033803;28;20067;-50
2024/04/06 05:06:07;;;;;;;55.55;52.70;;;;;;;;;;5035323;28;20064;-51
2024/04/06 05:08:32;;;;;;;53.65;50.90;;;;;;;;;;5031866;28;20025;-49
2024/04/06 05:10:58;;;;;;;54.75;51.95;;;;;;;;;;5031708;28;20033;-59
2024/04/06 05:13:23;;;;;;;52.78;50.08;;;;;;;;;;5035221;28;20033;-59
2024/04/06 05:15:50;;;;;;;48.13;45.70;;;;;;;;;;5030684;28;20038;-59
2024/04/06 05:18:15;;;;;;;56.55;53.72;;;;;;;;;;5034162;28;20071;-59
2024/04/06 05:20:55;;;;;;;62.83;59.67;;;;;;;;;;5032250;28;20474;-59
2024/04/06 05:23:21;;;;;;;62.42;59.30;;;;;;;;;;5033000;28;20070;-60
2024/04/06 05:25:48;;;;;;;68.05;64.63;;;;;;;;;;5031708;28;20375;-49
2024/04/06 05:28:17;;;;;;;62.83;59.63;;;;;;;;;;5031241;28;20433;-49
2024/04/06 05:30:47;;;;;;;59.75;56.55;;;;;;;;;;5030532;28;20030;-54
2024/04/06 05:33:16;;;;;;;60.67;57.57;;;;;;;;;;5026836;28;20036;-52
2024/04/06 05:35:43;;;;;;;62.28;59.05;;;;;;;;;;5031791;28;20044;-49
2024/04/06 05:38:09;;;;;;;56.75;53.85;;;;;;;;;;5029438;28;20274;-53
2024/04/06 05:40:41;;;;;;;54.13;51.33;;;;;;;;;;5029301;28;20051;-52
2024/04/06 05:43:09;;;;;;;50.70;48.15;;;;;;;;;;5033851;28;20764;-52
2024/04/06 05:45:36;;;;;;;72.35;66.68;;;;;;;;;;5031721;28;20041;-53
2024/04/06 05:48:03;;;;;;;83.05;76.90;;;;;;;;;;5031062;28;20383;-59
2024/04/06 05:50:36;;;;;;;63.53;59.05;;;;;;;;;;5034205;28;20368;-59
2024/04/06 05:53:03;;;;;;;51.78;48.97;;;;;;;;;;5031030;28;20032;-61
2024/04/06 05:55:28;;;;;;;50.63;47.72;;;;;;;;;;5030488;28;20082;-59
2024/04/06 05:57:54;;;;;;;45.17;42.78;;;;;;;;;;5030714;28;20045;-56
2024/04/06 06:00:20;;;;;;;45.58;43.17;;;;;;;;;;5030781;28;20044;-59
2024/04/06 06:02:46;;;;;;;55.78;52.88;;;;;;;;;;5030957;28;20041;-59
2024/04/06 06:05:11;;;;;;;64.10;59.60;;;;;;;;;;5031063;28;20540;-60
2024/04/06 06:07:37;;;;;;;54.65;51.92;;;;;;;;;;5030790;28;20112;-59
2024/04/06 06:10:03;;;;;;;55.83;53.03;;;;;;;;;;5028475;28;20147;-59
2024/04/06 06:12:29;;;;;;;48.72;46.17;;;;;;;;;;5035612;28;20121;-59
2024/04/06 06:14:54;;;;;;;63.83;60.63;;;;;;;;;;5032447;28;20036;-52
2024/04/06 06:17:20;;;;;;;51.03;48.17;;;;;;;;;;5031773;28;20232;-59
2024/04/06 06:19:45;;;;;;;61.58;58.45;;;;;;;;;;5031039;28;20489;-59
2024/04/06 06:22:11;;;;;;;68.00;64.55;;;;;;;;;;5031434;28;20076;-59
2024/04/06 06:24:37;;;;;;;85.35;81.10;;;;;;;;;;5033078;28;20600;-60
2024/04/06 06:27:02;;;;;;;89.68;85.13;;;;;;;;;;5032455;28;20025;-59
2024/04/06 06:29:28;;;;;;;96.22;91.43;;;;;;;;;;5029886;28;20041;-59
2024/04/06 06:31:53;;;;;;;94.95;90.25;;;;;;;;;;5031459;28;20467;-58
2024/04/06 06:34:20;;;;;;;93.53;88.88;;;;;;;;;;5027717;28;20049;-59
2024/04/06 06:36:48;;;;;;;98.38;93.50;;;;;;;;;;5033277;28;20064;-59
2024/04/06 06:39:13;;;;;;;109.88;104.43;;;;;;;;;;5027229;28;20595;-52
2024/04/06 06:41:39;;;;;;;109.15;103.78;;;;;;;;;;5033431;28;20095;-58
2024/04/06 06:44:04;;;;;;;90.55;85.78;;;;;;;;;;5028836;28;20045;-59
2024/04/06 06:46:29;;;;;;;86.00;81.68;;;;;;;;;;5030443;28;20033;-59
2024/04/06 06:48:55;;;;;;;64.95;61.67;;;;;;;;;;5031756;28;20033;-59
2024/04/06 06:51:20;;;;;;;75.07;71.28;;;;;;;;;;5030109;28;20040;-59
2024/04/06 06:53:45;;;;;;;118.22;112.38;;;;;;;;;;5029897;28;20119;-59
2024/04/06 06:56:11;;;;;;;144.85;137.70;;;;;;;;;;5029120;28;20355;-59
2024/04/06 06:58:36;;;;;;;150.50;142.25;;;;;;;;;;5031163;28;20029;-59
2024/04/06 07:01:02;;;;;;;164.85;156.70;;;;;;;;;;5031948;28;20045;-59
2024/04/06 07:03:28;;;;;;;200.77;190.90;;;;;;;;;;5033677;28;20049;-59
2024/04/06 07:05:53;;;;;;;197.57;187.88;;;;;;;;;;5035734;28;20033;-52
2024/04/06 07:08:18;;;;;;;131.13;124.63;;;;;;;;;;5033449;28;20026;-51
2024/04/06 07:10:43;;;;;;;123.45;117.30;;;;;;;;;;5037197;28;20037;-53
2024/04/06 07:13:09;;;;;;;185.68;176.43;;;;;;;;;;5033426;28;20033;-51
2024/04/06 07:15:34;;;;;;;172.93;164.32;;;;;;;;;;5033457;28;20526;-59
2024/04/06 07:17:59;;;;;;;184.98;175.77;;;;;;;;;;5033807;28;20041;-58
2024/04/06 07:20:25;;;;;;;146.90;139.60;;;;;;;;;;5034203;28;20459;-59
2024/04/06 07:22:50;;;;;;;151.35;143.82;;;;;;;;;;5034736;28;20474;-58
2024/04/06 07:25:19;;;;;;;202.93;192.93;;;;;;;;;;5032016;28;20037;-52
2024/04/06 07:27:45;;;;;;;163.82;155.27;;;;;;;;;;5036202;28;20129;-53
2024/04/06 07:30:10;;;;;;;102.70;97.60;;;;;;;;;;5034230;28;20159;-51
2024/04/06 07:32:36;;;;;;;70.85;67.28;;;;;;;;;;5033178;28;20037;-52
2024/04/06 07:35:02;;;;;;;68.47;64.75;;;;;;;;;;5032577;28;20123;-51
2024/04/06 07:37:27;;;;;;;96.78;91.97;;;;;;;;;;5034537;28;20038;-52
2024/04/06 07:39:53;;;;;;;91.32;86.80;;;;;;;;;;5032357;28;20048;-52
2024/04/06 07:42:18;;;;;;;101.15;96.10;;;;;;;;;;5032759;28;20048;-59
2024/04/06 07:44:43;;;;;;;103.78;98.57;;;;;;;;;;5031200;28;20423;-59
2024/04/06 07:47:09;;;;;;;155.00;147.30;;;;;;;;;;5031740;28;20056;-59
2024/04/06 07:49:34;;;;;;;68.38;64.97;;;;;;;;;;5031543;28;20037;-59
2024/04/06 07:51:59;;;;;;;111.60;106.05;;;;;;;;;;5034113;28;20025;-59
2024/04/06 07:54:25;;;;;;;175.43;166.55;;;;;;;;;;5036373;28;20378;-58
2024/04/06 07:56:50;;;;;;;117.05;111.25;;;;;;;;;;5033448;28;20375;-59
2024/04/06 07:59:15;;;;;;;160.30;152.38;;;;;;;;;;5029068;28;20036;-59
2024/04/06 08:01:40;;;;;;;96.05;91.28;;;;;;;;;;5029099;28;20056;-58
2024/04/06 08:04:06;;;;;;;185.93;176.50;;;;;;;;;;5031821;28;20033;-59
2024/04/06 08:06:31;;;;;;;91.00;85.93;;;;;;;;;;5032672;28;20029;-59
2024/04/06 08:08:56;;;;;;;89.97;85.53;;;;;;;;;;5033607;28;20044;-59
2024/04/06 08:11:22;;;;;;;114.30;108.55;;;;;;;;;;5033212;28;20032;-59
2024/04/06 08:13:47;;;;;;;140.02;133.10;;;;;;;;;;5034387;28;20371;-58
2024/04/06 08:16:12;;;;;;;149.65;141.68;;;;;;;;;;5031960;28;20036;-59
2024/04/06 08:18:38;;;;;;;141.23;134.23;;;;;;;;;;5034718;28;20029;-59
2024/04/06 08:21:04;;;;;;;140.50;133.57;;;;;;;;;;5033628;28;20037;-59
2024/04/06 08:23:29;;;;;;;125.50;119.30;;;;;;;;;;5035502;28;20044;-58
2024/04/06 08:25:54;;;;;;;128.77;122.40;;;;;;;;;;5033260;28;20037;-58
2024/04/06 08:28:20;;;;;;;112.57;107.00;;;;;;;;;;5034021;28;20183;-58
2024/04/06 08:30:46;;;;;;;93.13;88.53;;;;;;;;;;5036177;28;20124;-59
2024/04/06 08:33:11;;;;;;;46.65;44.28;;;;;;;;;;5029824;28;20056;-59
2024/04/06 08:35:37;;;;;;;70.47;66.95;;;;;;;;;;5035063;28;20036;-59
2024/04/06 08:38:07;;;;;;;51.58;48.95;;;;;;;;;;5031637;28;20078;-59
2024/04/06 08:40:39;;;;;;;129.38;122.93;;;;;;;;;;5029148;28;20481;-58
2024/04/06 08:43:11;;;;;;;59.85;56.85;;;;;;;;;;5028697;28;20427;-59
2024/04/06 08:45:37;;;;;;;60.17;57.10;;;;;;;;;;5034385;28;20044;-59
2024/04/06 08:48:03;;;;;;;50.78;48.20;;;;;;;;;;5035300;28;20059;-58
2024/04/06 08:50:29;;;;;;;76.95;73.10;;;;;;;;;;5032731;28;20098;-58
2024/04/06 08:52:54;;;;;;;81.68;77.60;;;;;;;;;;5030472;28;20033;-58
2024/04/06 08:55:21;;;;;;;58.97;56.03;;;;;;;;;;5031973;28;20057;-58
2024/04/06 08:57:48;;;;;;;107.65;102.35;;;;;;;;;;5030959;28;20153;-59
2024/04/06 09:00:16;;;;;;;124.90;118.40;;;;;;;;;;5031377;28;20043;-58
2024/04/06 09:02:41;;;;;;;149.70;142.30;;;;;;;;;;5031258;28;20029;-59
2024/04/06 09:05:07;;;;;;;155.80;148.07;;;;;;;;;;5032109;28;20036;-59
2024/04/06 09:07:33;;;;;;;140.73;133.75;;;;;;;;;;5030271;28;20072;-59
2024/04/06 09:09:58;;;;;;;119.28;113.38;;;;;;;;;;5033651;28;20745;-59
2024/04/06 09:12:24;;;;;;;123.00;116.95;;;;;;;;;;5030705;28;20037;-59
2024/04/06 09:14:50;;;;;;;114.18;108.50;;;;;;;;;;5031416;28;20044;-59
2024/04/06 09:17:19;;;;;;;143.70;136.63;;;;;;;;;;5031981;28;20033;-51
2024/04/06 09:19:45;;;;;;;220.60;209.80;;;;;;;;;;5031064;28;20037;-51
2024/04/06 09:22:11;;;;;;;148.77;141.43;;;;;;;;;;5030565;28;20037;-58
2024/04/06 09:24:39;;;;;;;245.75;233.70;;;;;;;;;;5027020;28;20431;-58
2024/04/06 09:27:08;;;;;;;296.85;282.15;;;;;;;;;;5033149;28;20103;-58
2024/04/06 09:29:34;;;;;;;201.68;191.50;;;;;;;;;;5034069;28;20033;-58
2024/04/06 09:32:02;;;;;;;195.27;185.75;;;;;;;;;;5021520;28;20036;-57
2024/04/06 09:34:28;;;;;;;242.57;230.73;;;;;;;;;;5034563;28;20115;-57
2024/04/06 09:37:00;;;;;;;288.98;274.70;;;;;;;;;;5028458;28;20136;-58
2024/04/06 09:39:29;;;;;;;266.88;253.77;;;;;;;;;;5031480;28;20057;-58
2024/04/06 09:41:56;;;;;;;273.80;260.35;;;;;;;;;;5034723;28;20382;-58
2024/04/06 09:44:23;;;;;;;289.92;275.67;;;;;;;;;;5033562;28;20057;-58
2024/04/06 09:46:49;;;;;;;252.73;240.38;;;;;;;;;;5032845;28;20020;-58
2024/04/06 09:49:15;;;;;;;274.90;261.48;;;;;;;;;;5034564;28;20421;-58
2024/04/06 09:51:41;;;;;;;283.15;269.20;;;;;;;;;;5030793;28;20075;-58
2024/04/06 09:54:06;;;;;;;282.80;269.00;;;;;;;;;;5030653;28;20030;-57
2024/04/06 09:56:32;;;;;;;343.55;326.23;;;;;;;;;;5031175;28;20047;-57
2024/04/06 09:58:57;;;;;;;340.17;322.95;;;;;;;;;;5032032;28;20051;-58
2024/04/06 10:01:22;;;;;;;384.65;364.77;;;;;;;;;;5030923;28;20042;-58
2024/04/06 10:03:48;;;;;;;395.00;374.45;;;;;;;;;;5032948;28;20033;-58
2024/04/06 10:06:18;;;;;;;403.58;382.27;;;;;;;;;;5031514;28;20053;-58
2024/04/06 10:08:56;;;;;;;401.13;380.20;;;;;;;;;;5029907;28;20060;-57
2024/04/06 10:11:27;;;;;;;432.10;408.88;;;;;;;;;;5028533;28;20459;-57
2024/04/06 10:13:53;;;;;;;407.45;386.27;;;;;;;;;;5029501;28;20045;-57
2024/04/06 10:16:22;;;;;;;400.08;379.35;;;;;;;;;;5030625;28;20487;-57
2024/04/06 10:18:48;;;;;;;360.52;342.25;;;;;;;;;;5032919;28;20045;-55
2024/04/06 10:21:19;;;;;;;275.85;262.20;;;;;;;;;;5031668;28;20033;-51
2024/04/06 10:23:46;;;;;;;424.80;402.58;;;;;;;;;;5033718;28;20032;-49
2024/04/06 10:26:16;;;;;;;410.90;389.25;;;;;;;;;;5031183;28;20034;-50
2024/04/06 10:28:43;;;;;;;348.80;330.98;;;;;;;;;;5028969;28;20029;-50
2024/04/06 10:31:09;;;;;;;393.10;372.77;;;;;;;;;;5030513;28;20605;-49
2024/04/06 10:33:37;;;;;;;366.13;347.35;;;;;;;;;;5030754;28;20056;-50
2024/04/06 10:36:07;;;;;;;420.50;398.65;;;;;;;;;;5031877;28;20123;-47
2024/04/06 10:38:32;;;;;;;;;;;;;;;;;;5035230;28;20032;-52
2024/04/06 10:40:58;;;;;;;328.25;311.83;;;;;;;;;;5035872;28;19924;-48
2024/04/06 10:43:23;;;;;;;434.52;411.65;;;;;;;;;;5033233;28;20053;-46
2024/04/06 10:45:52;;;;;;;399.92;379.35;;;;;;;;;;5033425;28;20033;-51
2024/04/06 10:48:18;;;;;;;340.92;323.92;;;;;;;;;;5033874;28;20041;-50
2024/04/06 10:50:45;;;;;;;361.38;343.17;;;;;;;;;;5037277;28;20040;-47
2024/04/06 10:53:11;;;;;;;358.48;340.38;;;;;;;;;;5033181;28;20108;-47
2024/04/06 10:55:36;;;;;;;395.35;375.08;;;;;;;;;;5031928;28;20037;-46
2024/04/06 10:58:02;;;;;;;421.50;399.48;;;;;;;;;;5035600;28;20832;-48
2024/04/06 11:00:30;;;;;;;369.83;351.13;;;;;;;;;;5032559;28;20566;-49
2024/04/06 11:03:01;;;;;;;340.90;323.80;;;;;;;;;;5035243;28;20052;-48
2024/04/06 11:05:27;;;;;;;408.88;387.45;;;;;;;;;;5033301;28;20033;-50
2024/04/06 11:07:52;;;;;;;465.75;440.23;;;;;;;;;;5033031;28;20045;-51
2024/04/06 11:10:18;;;;;;;515.22;485.88;;;;;;;;;;5033397;28;20040;-49
2024/04/06 11:12:43;;;;;;;477.42;450.90;;;;;;;;;;5033698;28;20044;-49
2024/04/06 11:15:11;;;;;;;448.98;424.88;;;;;;;;;;5033005;28;20124;-49
2024/04/06 11:17:37;;;;;;;409.02;387.55;;;;;;;;;;5032807;28;20033;-48
2024/04/06 11:20:04;;;;;;;684.65;639.75;;;;;;;;;;5034646;28;20078;-50
2024/04/06 11:22:29;;;;;;;693.58;647.80;;;;;;;;;;5032024;28;20091;-47
2024/04/06 11:24:57;;;;;;;646.00;604.53;;;;;;;;;;5037351;28;20040;-47
2024/04/06 11:27:25;;;;;;;514.13;483.67;;;;;;;;;;5033913;28;20080;-53
2024/04/06 11:29:51;;;;;;;417.58;394.60;;;;;;;;;;5031265;28;20025;-48
2024/04/06 11:32:21;;;;;;;391.35;369.80;;;;;;;;;;5035466;28;20615;-49
2024/04/06 11:34:50;;;;;;;;;;;;;;;;;;5034513;28;20087;-48
2024/04/06 11:37:17;;;;;;;360.85;342.00;;;;;;;;;;5034063;28;19920;-52
2024/04/06 11:39:43;;;;;;;271.67;257.70;;;;;;;;;;5032228;28;20055;-50
2024/04/06 11:42:08;;;;;;;288.83;273.98;;;;;;;;;;5038393;28;20371;-50
2024/04/06 11:44:34;;;;;;;333.65;316.35;;;;;;;;;;5029424;28;20040;-50
2024/04/06 11:46:59;;;;;;;193.48;183.65;;;;;;;;;;5037424;28;20473;-48
2024/04/06 11:49:25;;;;;;;145.20;137.75;;;;;;;;;;5034781;28;20046;-56
2024/04/06 11:51:50;;;;;;;143.43;136.20;;;;;;;;;;5036990;28;20086;-57
2024/04/06 11:54:15;;;;;;;213.05;202.30;;;;;;;;;;5032969;28;20067;-51
2024/04/06 11:56:41;;;;;;;117.95;111.93;;;;;;;;;;5036486;28;20097;-48
2024/04/06 11:59:07;;;;;;;127.35;120.93;;;;;;;;;;5032467;28;20095;-52
2024/04/06 12:01:32;;;;;;;119.93;113.93;;;;;;;;;;5030448;28;20041;-49
2024/04/06 12:03:58;;;;;;;149.48;141.95;;;;;;;;;;5032383;28;20082;-48
2024/04/06 12:06:24;;;;;;;143.63;136.40;;;;;;;;;;5032141;28;20029;-50
2024/04/06 12:08:51;;;;;;;112.72;107.07;;;;;;;;;;5033955;28;20116;-49
2024/04/06 12:11:17;;;;;;;101.25;96.22;;;;;;;;;;5034214;28;20037;-51
2024/04/06 12:13:42;;;;;;;100.55;95.47;;;;;;;;;;5031459;28;20735;-50
2024/04/06 12:16:08;;;;;;;80.82;76.82;;;;;;;;;;5033975;28;20038;-50
2024/04/06 12:18:33;;;;;;;79.93;75.90;;;;;;;;;;5032557;28;20037;-51
2024/04/06 12:20:58;;;;;;;84.30;80.10;;;;;;;;;;5034086;28;20029;-49
2024/04/06 12:23:24;;;;;;;83.38;79.20;;;;;;;;;;5033376;28;20064;-51
2024/04/06 12:25:49;;;;;;;132.52;125.03;;;;;;;;;;5033077;28;20036;-50
2024/04/06 12:28:15;;;;;;;124.53;118.40;;;;;;;;;;5034271;28;20060;-48
2024/04/06 12:30:40;;;;;;;169.93;161.45;;;;;;;;;;5030878;28;20506;-58
2024/04/06 12:33:05;;;;;;;135.45;128.68;;;;;;;;;;5033041;28;20036;-57
2024/04/06 12:35:30;;;;;;;138.07;131.18;;;;;;;;;;5032708;28;20029;-57
2024/04/06 12:37:56;;;;;;;139.15;132.20;;;;;;;;;;5035357;28;20028;-58
2024/04/06 12:40:21;;;;;;;151.85;144.25;;;;;;;;;;5032860;28;20047;-58
2024/04/06 12:42:46;;;;;;;145.98;138.68;;;;;;;;;;5031452;28;20124;-58
2024/04/06 12:45:12;;;;;;;170.45;161.95;;;;;;;;;;5031456;28;20029;-58
2024/04/06 12:47:37;;;;;;;139.25;132.30;;;;;;;;;;5031541;28;20624;-58
2024/04/06 12:50:04;;;;;;;480.35;454.08;;;;;;;;;;5032913;28;20499;-58
2024/04/06 12:52:32;;;;;;;451.77;427.63;;;;;;;;;;5030664;28;20108;-58
2024/04/06 12:54:58;;;;;;;458.05;433.45;;;;;;;;;;5034762;28;20029;-58
2024/04/06 12:57:42;;;;;;;376.90;357.42;;;;;;;;;;5032304;28;20041;-58
2024/04/06 13:00:09;;;;;;;398.05;377.20;;;;;;;;;;5030998;28;20041;-59
2024/04/06 13:02:38;;;;;;;324.65;308.20;;;;;;;;;;5033049;28;20037;-59
2024/04/06 13:05:05;;;;;;;476.98;450.70;;;;;;;;;;5030885;28;20037;-59
2024/04/06 13:07:31;;;;;;;500.67;472.83;;;;;;;;;;5030511;28;20052;-58
2024/04/06 13:10:00;;;;;;;422.23;399.85;;;;;;;;;;5030682;28;20049;-59
2024/04/06 13:12:31;;;;;;;472.42;446.58;;;;;;;;;;5033777;28;20145;-59
2024/04/06 13:15:00;;;;;;;438.55;415.35;;;;;;;;;;5033565;28;20036;-59
2024/04/06 13:17:27;;;;;;;380.25;360.52;;;;;;;;;;5032796;28;20391;-59
2024/04/06 13:19:53;;;;;;;355.70;337.45;;;;;;;;;;5032310;28;20036;-59
2024/04/06 13:22:19;;;;;;;366.25;347.52;;;;;;;;;;5031257;28;20029;-59
2024/04/06 13:24:44;;;;;;;396.55;375.73;;;;;;;;;;5031449;28;20029;-59
2024/04/06 13:27:09;;;;;;;339.30;321.95;;;;;;;;;;5031228;28;20236;-59
2024/04/06 13:29:36;;;;;;;352.75;334.80;;;;;;;;;;5030155;28;20041;-59
2024/04/06 13:32:04;;;;;;;332.27;315.45;;;;;;;;;;5030070;28;20021;-59
2024/04/06 13:34:30;;;;;;;314.30;298.48;;;;;;;;;;5033175;28;20021;-58
2024/04/06 13:36:55;;;;;;;334.73;317.75;;;;;;;;;;5031467;28;20775;-59
2024/04/06 13:39:21;;;;;;;265.23;252.05;;;;;;;;;;5033374;28;20152;-59
2024/04/06 13:41:47;;;;;;;300.67;285.73;;;;;;;;;;5032917;28;20390;-59
2024/04/06 13:44:13;;;;;;;307.35;292.02;;;;;;;;;;5033817;28;20553;-59
2024/04/06 13:46:38;;;;;;;372.15;353.13;;;;;;;;;;5030378;28;20029;-58
2024/04/06 13:49:04;;;;;;;304.33;289.10;;;;;;;;;;5030020;28;20048;-54
2024/04/06 13:51:29;;;;;;;279.90;266.05;;;;;;;;;;5031307;28;20045;-53
2024/04/06 13:53:55;;;;;;;245.90;233.80;;;;;;;;;;5030513;28;20048;-53
2024/04/06 13:56:20;;;;;;;266.40;253.18;;;;;;;;;;5032709;28;20037;-54
2024/04/06 13:58:49;;;;;;;258.20;245.43;;;;;;;;;;5030318;28;20048;-52
2024/04/06 14:01:15;;;;;;;281.85;267.77;;;;;;;;;;5029680;28;20487;-54